Time;durP1;ratioP1;P1;durP2;ratioP2;P2;SDS_P1;SDS_P2;PMS_P1;PMS_P2;Temp;Humidity;BMP_temperature;BMP_pressure;BME280_temperature;BME280_humidity;BME280_pressure;Samples;Min_cycle;Max_cycle;Signal;HPM_P1;HPM_P2
2022/10/13 00:01:12;;;;;;;14.77;10.98;;;23.50;50.40;;;;;;4972982;28;20055;-65
2022/10/13 00:03:40;;;;;;;13.65;11.35;;;23.50;50.40;;;;;;4972354;28;20317;-65
2022/10/13 00:06:09;;;;;;;12.95;10.80;;;23.50;50.50;;;;;;4982044;28;20050;-65
2022/10/13 00:08:37;;;;;;;14.77;11.15;;;23.50;50.50;;;;;;4972430;28;20060;-65
2022/10/13 00:11:15;;;;;;;12.40;10.00;;;23.50;50.50;;;;;;4975259;28;20065;-65
2022/10/13 00:13:44;;;;;;;18.40;10.80;;;23.50;50.50;;;;;;4975593;28;20051;-66
2022/10/13 00:16:13;;;;;;;13.18;9.95;;;23.50;50.50;;;;;;4975566;28;20051;-65
2022/10/13 00:18:40;;;;;;;14.13;10.93;;;23.50;50.40;;;;;;4974445;28;20251;-66
2022/10/13 00:21:11;;;;;;;13.35;10.90;;;23.40;50.40;;;;;;4975756;28;20054;-66
2022/10/13 00:23:38;;;;;;;;;;;23.50;50.40;;;;;;4975990;28;20234;-66
2022/10/13 00:26:07;;;;;;;14.57;10.88;;;23.50;50.50;;;;;;4975730;28;19923;-66
2022/10/13 00:28:35;;;;;;;12.57;9.75;;;23.50;50.50;;;;;;4990640;28;20051;-66
2022/10/13 00:31:02;;;;;;;12.82;10.02;;;23.50;50.50;;;;;;4974659;28;20050;-64
2022/10/13 00:33:29;;;;;;;14.25;9.93;;;23.50;50.50;;;;;;4975624;28;20472;-65
2022/10/13 00:35:56;;;;;;;12.93;10.00;;;23.40;50.50;;;;;;4975291;28;20066;-64
2022/10/13 00:38:23;;;;;;;13.40;9.80;;;23.40;51.10;;;;;;4970802;28;20051;-65
2022/10/13 00:40:53;;;;;;;14.27;10.77;;;23.50;50.60;;;;;;4975639;28;20471;-65
2022/10/13 00:43:23;;;;;;;12.18;10.30;;;23.40;50.50;;;;;;4988874;28;20053;-65
2022/10/13 00:45:51;;;;;;;12.75;10.35;;;23.50;50.60;;;;;;4975101;28;20173;-65
2022/10/13 00:48:27;;;;;;;13.55;10.57;;;23.40;50.50;;;;;;4990200;28;20050;-65
2022/10/13 00:50:57;;;;;;;12.50;10.95;;;23.50;50.50;;;;;;4974756;28;20050;-65
2022/10/13 00:53:31;;;;;;;13.80;11.35;;;23.40;50.40;;;;;;4975061;28;20055;-61
2022/10/13 00:55:58;;;;;;;14.30;10.25;;;23.40;50.30;;;;;;4974817;28;20557;-64
2022/10/13 00:58:31;;;;;;;12.85;9.98;;;23.40;50.30;;;;;;4974523;28;20058;-65
2022/10/13 01:00:58;;;;;;;12.93;10.82;;;23.50;50.30;;;;;;4974938;28;20058;-65
2022/10/13 01:03:26;;;;;;;14.07;10.45;;;23.40;50.30;;;;;;4974892;28;20431;-65
2022/10/13 01:05:58;;;;;;;14.32;10.25;;;23.40;50.30;;;;;;4975406;28;20438;-65
2022/10/13 01:08:26;;;;;;;11.48;9.65;;;23.40;50.30;;;;;;4974771;28;20060;-65
2022/10/13 01:11:21;;;;;;;11.90;9.65;;;23.40;50.30;;;;;;4970702;28;20518;-65
2022/10/13 01:14:08;;;;;;;11.63;10.20;;;23.40;50.30;;;;;;4974930;28;20043;-65
2022/10/13 01:17:04;;;;;;;12.77;10.02;;;23.40;50.30;;;;;;4973899;28;20062;-65
2022/10/13 01:20:04;;;;;;;13.50;9.93;;;23.40;50.30;;;;;;4985739;28;20047;-65
2022/10/13 01:23:11;;;;;;;12.30;9.70;;;23.40;50.30;;;;;;4973790;28;20053;-65
2022/10/13 01:26:17;;;;;;;14.00;10.63;;;23.40;50.30;;;;;;4974404;28;20065;-65
2022/10/13 01:29:23;;;;;;;11.63;9.88;;;23.40;50.30;;;;;;4973345;28;20047;-65
2022/10/13 01:32:22;;;;;;;11.27;9.32;;;23.40;50.30;;;;;;4972828;28;20339;-65
2022/10/13 01:35:02;;;;;;;12.32;9.70;;;23.40;50.30;;;;;;4987576;28;20046;-65
2022/10/13 01:37:36;;;;;;;13.07;10.18;;;23.40;50.30;;;;;;4974332;28;20069;-65
2022/10/13 01:40:22;;;;;;;11.63;9.68;;;23.40;50.30;;;;;;4973991;28;20050;-65
2022/10/13 01:43:13;;;;;;;12.45;9.63;;;23.30;50.20;;;;;;4969752;28;20047;-65
2022/10/13 01:45:55;;;;;;;11.63;9.55;;;23.30;50.20;;;;;;4972770;28;20050;-65
2022/10/13 01:48:24;;;;;;;13.00;10.13;;;23.30;50.20;;;;;;4974196;28;20043;-65
2022/10/13 01:50:54;;;;;;;12.57;9.77;;;23.30;50.20;;;;;;4988493;28;20058;-65
2022/10/13 01:53:22;;;;;;;13.23;9.90;;;23.30;50.20;;;;;;4973980;28;20055;-66
2022/10/13 01:55:51;;;;;;;11.48;9.20;;;23.30;50.20;;;;;;4973399;28;20051;-65
2022/10/13 01:58:20;;;;;;;11.32;9.18;;;23.30;50.30;;;;;;4973719;28;20517;-66
2022/10/13 02:01:04;;;;;;;11.90;9.70;;;23.30;50.30;;;;;;4974002;28;20046;-65
2022/10/13 02:04:05;;;;;;;12.25;9.68;;;23.30;50.30;;;;;;4988607;28;20050;-65
2022/10/13 02:06:50;;;;;;;11.88;8.95;;;23.30;50.30;;;;;;4986188;28;20493;-61
2022/10/13 02:09:42;;;;;;;14.40;10.23;;;23.30;50.40;;;;;;4987071;28;20051;-65
2022/10/13 02:12:38;;;;;;;12.98;9.38;;;23.30;50.30;;;;;;4974148;28;20051;-65
2022/10/13 02:15:08;;;;;;;12.48;9.20;;;23.30;50.20;;;;;;4969531;28;20480;-65
2022/10/13 02:17:35;;;;;;;11.30;9.13;;;23.30;50.20;;;;;;4972284;28;20066;-65
2022/10/13 02:20:05;;;;;;;12.05;9.10;;;23.30;50.10;;;;;;4973463;28;20288;-65
2022/10/13 02:22:39;;;;;;;12.52;9.30;;;23.30;50.10;;;;;;4973034;28;20085;-65
2022/10/13 02:25:07;;;;;;;12.05;9.13;;;23.30;50.00;;;;;;4973770;28;20047;-65
2022/10/13 02:27:34;;;;;;;11.68;9.23;;;23.30;50.00;;;;;;4988241;28;20050;-65
2022/10/13 02:30:01;;;;;;;11.20;9.23;;;23.30;50.00;;;;;;4973359;28;20047;-65
2022/10/13 02:32:28;;;;;;;11.23;8.98;;;23.30;50.00;;;;;;4972550;28;20073;-65
2022/10/13 02:34:56;;;;;;;10.93;8.00;;;23.30;50.00;;;;;;4973682;28;20065;-65
2022/10/13 02:37:24;;;;;;;13.95;8.88;;;23.40;50.00;;;;;;4971921;28;20047;-65
2022/10/13 02:39:52;;;;;;;9.43;8.18;;;23.30;50.00;;;;;;4972044;28;20612;-65
2022/10/13 02:42:19;;;;;;;10.43;8.43;;;23.30;50.00;;;;;;4973252;28;20050;-65
2022/10/13 02:44:46;;;;;;;11.52;9.38;;;23.30;50.00;;;;;;4973188;28;20054;-65
2022/10/13 02:47:13;;;;;;;10.63;9.52;;;23.30;50.00;;;;;;4969025;28;20057;-65
2022/10/13 02:49:40;;;;;;;11.05;8.57;;;23.30;50.00;;;;;;4973467;28;20046;-65
2022/10/13 02:52:07;;;;;;;12.00;9.00;;;23.30;49.90;;;;;;4973183;28;20054;-65
2022/10/13 02:54:34;;;;;;;10.00;8.25;;;23.30;50.00;;;;;;4972972;28;20054;-65
2022/10/13 02:57:02;;;;;;;8.60;7.70;;;23.30;50.00;;;;;;4972970;28;20047;-65
2022/10/13 02:59:29;;;;;;;10.68;8.65;;;23.30;49.90;;;;;;4973423;28;20061;-65
2022/10/13 03:01:56;;;;;;;11.55;8.93;;;23.30;49.90;;;;;;4986529;28;20074;-65
2022/10/13 03:04:23;;;;;;;9.95;8.13;;;23.30;49.90;;;;;;4973134;28;20047;-65
2022/10/13 03:06:50;;;;;;;11.05;8.30;;;23.30;49.90;;;;;;4973208;28;20058;-61
2022/10/13 03:09:17;;;;;;;10.75;8.30;;;23.30;49.90;;;;;;4971221;28;20057;-65
2022/10/13 03:11:44;;;;;;;10.88;8.38;;;23.30;49.90;;;;;;4973109;28;20066;-65
2022/10/13 03:14:12;;;;;;;10.63;8.82;;;23.30;49.90;;;;;;4972929;28;20047;-65
2022/10/13 03:16:39;;;;;;;9.60;8.00;;;23.30;49.80;;;;;;4971269;28;20086;-65
2022/10/13 03:19:06;;;;;;;11.00;8.45;;;23.30;49.90;;;;;;4968233;28;20051;-65
2022/10/13 03:21:33;;;;;;;11.93;8.52;;;23.30;49.90;;;;;;4972779;28;20055;-64
2022/10/13 03:24:00;;;;;;;9.50;7.82;;;23.30;49.90;;;;;;4972637;28;20047;-65
2022/10/13 03:26:27;;;;;;;8.93;7.85;;;23.30;49.90;;;;;;4964514;28;20047;-65
2022/10/13 03:28:54;;;;;;;11.13;7.85;;;23.20;49.90;;;;;;4968155;28;20538;-65
2022/10/13 03:31:22;;;;;;;10.68;8.00;;;23.20;49.90;;;;;;4968079;28;20551;-65
2022/10/13 03:33:49;;;;;;;13.00;8.30;;;23.20;49.90;;;;;;4973001;28;20074;-65
2022/10/13 03:36:17;;;;;;;9.70;8.23;;;23.20;49.90;;;;;;4972599;28;20074;-65
2022/10/13 03:38:44;;;;;;;9.95;8.18;;;23.20;49.90;;;;;;4970777;28;20057;-65
2022/10/13 03:41:16;;;;;;;10.25;8.10;;;23.30;49.90;;;;;;4972436;28;20054;-65
2022/10/13 03:43:44;;;;;;;7.95;7.10;;;23.20;49.80;;;;;;4966949;28;20042;-65
2022/10/13 03:46:13;;;;;;;9.20;7.18;;;23.30;49.70;;;;;;4977337;28;20435;-65
2022/10/13 03:48:41;;;;;;;8.77;7.68;;;23.20;49.70;;;;;;4981774;28;20054;-65
2022/10/13 03:51:14;;;;;;;9.73;7.85;;;23.30;49.70;;;;;;4971124;28;20047;-65
2022/10/13 03:53:41;;;;;;;9.77;8.15;;;23.30;49.70;;;;;;4975646;28;20050;-66
2022/10/13 03:56:14;;;;;;;9.40;7.53;;;23.30;49.70;;;;;;4975035;28;20531;-65
2022/10/13 03:58:41;;;;;;;11.75;7.55;;;23.30;49.70;;;;;;4974686;28;20051;-65
2022/10/13 04:01:11;;;;;;;9.15;7.85;;;23.30;49.60;;;;;;4985128;28;20042;-66
2022/10/13 04:03:39;;;;;;;9.10;7.82;;;23.20;49.60;;;;;;4985762;28;20058;-66
2022/10/13 04:06:06;;;;;;;9.32;7.70;;;23.20;49.60;;;;;;4984021;28;20058;-65
2022/10/13 04:08:33;;;;;;;9.80;7.75;;;23.20;49.60;;;;;;4981474;28;20054;-65
2022/10/13 04:11:03;;;;;;;8.02;6.95;;;23.20;49.60;;;;;;4975180;28;20459;-65
2022/10/13 04:13:30;;;;;;;9.35;7.28;;;23.20;49.60;;;;;;4975884;28;20047;-65
2022/10/13 04:16:02;;;;;;;8.63;6.85;;;23.30;50.20;;;;;;4975949;28;20066;-65
2022/10/13 04:18:30;;;;;;;8.23;7.35;;;23.20;49.60;;;;;;4975598;28;20056;-64
2022/10/13 04:20:57;;;;;;;10.52;8.43;;;23.20;49.60;;;;;;4973053;28;20054;-65
2022/10/13 04:23:24;;;;;;;11.07;7.43;;;23.20;49.60;;;;;;4994661;28;20042;-65
2022/10/13 04:25:51;;;;;;;8.20;7.38;;;23.20;49.60;;;;;;4983714;28;20042;-65
2022/10/13 04:28:18;;;;;;;8.00;7.20;;;23.20;49.60;;;;;;4983214;28;20046;-65
2022/10/13 04:30:45;;;;;;;9.10;7.20;;;23.20;49.60;;;;;;4984652;28;20054;-63
2022/10/13 04:33:15;;;;;;;8.98;6.72;;;23.20;49.60;;;;;;4998608;28;20054;-64
2022/10/13 04:35:42;;;;;;;9.95;7.40;;;23.20;49.60;;;;;;4977244;28;20061;-64
2022/10/13 04:38:09;;;;;;;9.07;7.38;;;23.20;49.50;;;;;;4963744;28;20047;-63
2022/10/13 04:40:37;;;;;;;12.60;8.05;;;23.20;49.40;;;;;;4955723;28;20566;-64
2022/10/13 04:43:04;;;;;;;9.60;7.40;;;23.20;49.30;;;;;;4967281;28;20053;-64
2022/10/13 04:45:31;;;;;;;10.95;7.80;;;23.20;49.30;;;;;;4974107;28;20042;-64
2022/10/13 04:48:00;;;;;;;9.45;7.13;;;23.20;49.30;;;;;;4974066;28;20047;-64
2022/10/13 04:50:27;;;;;;;8.40;6.95;;;23.20;49.20;;;;;;4974244;28;20046;-64
2022/10/13 04:52:54;;;;;;;9.85;8.15;;;23.20;49.20;;;;;;4974800;28;20227;-64
2022/10/13 04:55:21;;;;;;;9.30;7.38;;;23.20;49.20;;;;;;4978381;28;20130;-64
2022/10/13 04:57:48;;;;;;;8.77;7.60;;;23.20;49.20;;;;;;4985732;28;20042;-64
2022/10/13 05:00:16;;;;;;;8.75;7.13;;;23.20;49.10;;;;;;4994857;28;20438;-64
2022/10/13 05:02:43;;;;;;;10.07;7.07;;;23.10;49.10;;;;;;4983682;28;20051;-64
2022/10/13 05:05:10;;;;;;;9.35;7.60;;;23.10;49.00;;;;;;4980348;28;20053;-64
2022/10/13 05:07:37;;;;;;;7.88;6.82;;;23.10;48.90;;;;;;4974454;28;20046;-64
2022/10/13 05:10:04;;;;;;;9.93;7.65;;;23.10;48.80;;;;;;4989235;28;20046;-64
2022/10/13 05:12:31;;;;;;;9.40;7.32;;;23.10;48.70;;;;;;4994325;28;20431;-64
2022/10/13 05:14:59;;;;;;;12.50;7.68;;;23.10;48.60;;;;;;4983472;28;20045;-62
2022/10/13 05:17:30;;;;;;;9.90;7.60;;;23.10;49.20;;;;;;4965202;28;20510;-65
2022/10/13 05:20:01;;;;;;;10.13;8.15;;;23.10;48.60;;;;;;4975065;28;20069;-64
2022/10/13 05:29:52;;;;;;;10.05;8.02;;;23.10;49.10;;;;;;4976612;28;20084;-61
2022/10/13 05:39:13;;;;;;;9.77;7.40;;;23.20;49.20;;;;;;4980584;28;20475;-60
2022/10/13 05:54:32;;;;;;;10.95;7.55;;;23.20;48.90;;;;;;4978029;28;20093;-62
2022/10/13 05:57:04;;;;;;;13.15;7.88;;;23.20;48.60;;;;;;4977891;28;20553;-60
2022/10/13 05:59:40;;;;;;;10.52;7.70;;;23.20;48.70;;;;;;4977354;28;20043;-62
2022/10/13 06:02:10;;;;;;;12.65;7.97;;;23.20;48.60;;;;;;4976815;28;20046;-62
2022/10/13 06:04:43;;;;;;;14.48;8.40;;;23.20;48.50;;;;;;4978078;28;20047;-63
2022/10/13 06:07:11;;;;;;;11.25;7.15;;;23.20;48.60;;;;;;4976325;28;20499;-60
2022/10/13 06:09:40;;;;;;;11.18;8.20;;;23.30;48.70;;;;;;4977588;28;20042;-60
2022/10/13 06:12:08;;;;;;;11.88;7.88;;;23.30;49.20;;;;;;4977288;28;20054;-59
2022/10/13 06:14:35;;;;;;;10.80;7.95;;;23.30;49.40;;;;;;4977034;28;20509;-60
2022/10/13 06:29:09;;;;;;;21.75;7.90;;;23.50;49.50;;;;;;5867688;23;20054;-60
2022/10/13 06:31:36;;;;;;;11.02;7.82;;;23.60;49.40;;;;;;5014754;28;20054;-62
2022/10/13 06:34:04;;;;;;;8.98;7.07;;;23.60;49.30;;;;;;5016154;28;20049;-59
2022/10/13 06:36:31;;;;;;;13.85;8.50;;;23.60;49.10;;;;;;5016181;28;20060;-60
2022/10/13 06:38:58;;;;;;;11.23;7.65;;;23.60;49.00;;;;;;5016129;28;20056;-60
2022/10/13 06:41:25;;;;;;;11.25;7.95;;;23.70;48.90;;;;;;5015449;28;20045;-60
2022/10/13 06:43:52;;;;;;;17.00;8.00;;;23.70;48.90;;;;;;5015814;28;20053;-60
2022/10/13 06:46:19;;;;;;;11.45;7.63;;;23.70;48.90;;;;;;5015116;28;20042;-61
2022/10/13 06:48:49;;;;;;;11.70;7.82;;;23.80;49.00;;;;;;5016153;28;20049;-65
2022/10/13 06:51:16;;;;;;;14.30;7.60;;;23.90;48.80;;;;;;5015464;28;20049;-60
2022/10/13 06:53:44;;;;;;;11.98;7.60;;;23.90;48.80;;;;;;5015546;28;20054;-62
2022/10/13 06:56:13;;;;;;;12.23;7.43;;;23.90;48.70;;;;;;5030999;28;20390;-60
2022/10/13 06:58:40;;;;;;;10.55;7.88;;;24.00;48.60;;;;;;5016605;28;20386;-60
2022/10/13 07:01:07;;;;;;;10.32;7.75;;;24.00;48.40;;;;;;5015723;28;20064;-61
2022/10/13 07:03:35;;;;;;;9.77;7.60;;;24.10;48.30;;;;;;5015584;28;20140;-60
2022/10/13 07:06:03;;;;;;;11.73;8.32;;;24.10;48.20;;;;;;5015747;28;20501;-61
2022/10/13 07:08:31;;;;;;;13.30;7.93;;;24.10;48.20;;;;;;5015372;28;20054;-60
2022/10/13 07:10:59;;;;;;;9.65;6.93;;;24.10;48.20;;;;;;5015663;28;20041;-60
2022/10/13 07:13:26;;;;;;;11.02;7.22;;;24.20;48.20;;;;;;5015589;28;20052;-61
2022/10/13 07:15:53;;;;;;;14.30;8.20;;;24.20;48.10;;;;;;5016546;28;20449;-62
2022/10/13 07:18:20;;;;;;;12.68;7.40;;;24.30;48.00;;;;;;5015224;28;20077;-61
2022/10/13 07:20:47;;;;;;;13.77;8.32;;;24.30;47.70;;;;;;5019078;28;20054;-61
2022/10/13 07:23:14;;;;;;;13.18;8.32;;;24.30;47.40;;;;;;5020142;28;20053;-59
2022/10/13 07:25:41;;;;;;;10.93;7.50;;;24.30;47.30;;;;;;5019479;28;20053;-62
2022/10/13 07:28:08;;;;;;;11.32;7.82;;;24.30;47.10;;;;;;5016555;28;20053;-61
2022/10/13 07:30:38;;;;;;;12.30;7.68;;;24.30;47.00;;;;;;5019379;28;20049;-61
2022/10/13 07:33:05;;;;;;;11.67;7.63;;;24.30;46.90;;;;;;5019353;28;20041;-60
2022/10/13 07:35:33;;;;;;;15.55;8.82;;;24.30;46.70;;;;;;5019897;28;20140;-59
2022/10/13 07:42:45;;;;;;;;;;;24.40;47.00;;;;;;5009576;28;20096;-61
2022/10/13 07:49:30;;;;;;;11.25;8.05;;;24.40;46.30;;;;;;4989195;28;20116;-61
2022/10/13 07:51:57;;;;;;;12.32;8.00;;;24.40;46.40;;;;;;5017450;28;20046;-63
2022/10/13 07:54:24;;;;;;;13.05;8.15;;;24.40;46.40;;;;;;5019767;28;20061;-60
2022/10/13 07:56:54;;;;;;;11.88;7.30;;;24.50;46.50;;;;;;5017935;28;20057;-60
2022/10/13 08:03:03;;;;;;;11.57;7.32;;;24.50;46.40;;;;;;5434120;22;20520;-61
2022/10/13 08:05:30;;;;;;;10.20;7.57;;;24.50;46.40;;;;;;4997607;28;20065;-62
2022/10/13 08:07:57;;;;;;;12.80;7.90;;;24.60;46.50;;;;;;4998613;28;20054;-63
2022/10/13 08:10:25;;;;;;;12.55;7.63;;;24.60;46.50;;;;;;4999306;28;20046;-62
2022/10/13 08:12:52;;;;;;;10.73;7.05;;;24.60;46.40;;;;;;4998553;28;20491;-62
2022/10/13 08:15:19;;;;;;;10.77;6.78;;;24.60;46.20;;;;;;4998247;28;20046;-62
2022/10/13 08:38:06;;;;;;;10.57;7.53;;;24.70;46.30;;;;;;4959098;29;20039;-61
2022/10/13 08:40:34;;;;;;;15.38;7.82;;;24.70;46.80;;;;;;4958680;28;20476;-62
2022/10/13 08:43:06;;;;;;;10.23;7.25;;;24.70;46.30;;;;;;4960589;28;20443;-61
2022/10/13 08:45:33;;;;;;;10.80;7.43;;;24.70;46.70;;;;;;4959559;28;20074;-61
2022/10/13 08:48:20;;;;;;;10.05;6.63;;;24.70;46.10;;;;;;4959375;28;20094;-62
2022/10/13 08:50:50;;;;;;;9.97;7.67;;;24.70;46.10;;;;;;4959545;28;20050;-61
2022/10/13 08:53:30;;;;;;;7.88;6.60;;;24.70;46.10;;;;;;4950766;28;20054;-61
2022/10/13 08:56:09;;;;;;;8.98;6.80;;;24.70;46.10;;;;;;4948642;28;20054;-61
2022/10/13 08:58:39;;;;;;;9.30;7.28;;;24.80;46.20;;;;;;4944634;28;20058;-62
2022/10/13 09:01:14;;;;;;;8.95;5.82;;;24.80;46.30;;;;;;4946507;28;20074;-62
2022/10/13 09:03:54;;;;;;;10.82;6.40;;;24.80;46.20;;;;;;4942613;29;20127;-61
2022/10/13 09:06:27;;;;;;;12.68;7.63;;;24.80;46.10;;;;;;4942544;28;20043;-62
2022/10/13 09:09:01;;;;;;;10.63;7.55;;;24.80;46.00;;;;;;4944657;28;20807;-62
2022/10/13 09:11:33;;;;;;;10.45;7.40;;;24.90;46.00;;;;;;4938267;28;20150;-61
2022/10/13 09:14:07;;;;;;;8.88;6.72;;;24.90;46.00;;;;;;4939134;28;20044;-62
2022/10/13 09:16:43;;;;;;;8.95;6.95;;;24.90;46.00;;;;;;4944446;28;20082;-60
2022/10/13 09:19:16;;;;;;;8.88;5.97;;;24.90;46.00;;;;;;4944011;28;20051;-61
2022/10/13 09:21:44;;;;;;;7.85;6.28;;;24.90;46.00;;;;;;4947484;28;20051;-61
2022/10/13 09:24:15;;;;;;;12.20;7.53;;;24.90;45.80;;;;;;4942961;28;20411;-62
2022/10/13 09:26:44;;;;;;;13.45;7.85;;;25.00;45.50;;;;;;4942468;28;20051;-63
2022/10/13 09:29:20;;;;;;;13.00;8.38;;;24.90;45.10;;;;;;4938206;28;20074;-62
2022/10/13 09:31:47;;;;;;;11.45;6.93;;;25.00;45.10;;;;;;4941634;28;20495;-62
2022/10/13 09:34:24;;;;;;;12.32;7.45;;;24.90;45.20;;;;;;4943415;28;20057;-62
2022/10/13 09:36:59;;;;;;;12.13;6.75;;;24.90;45.50;;;;;;4950118;28;20507;-63
2022/10/13 09:39:27;;;;;;;9.02;6.18;;;24.90;45.60;;;;;;4963074;28;20047;-62
2022/10/13 09:42:24;;;;;;;14.32;7.13;;;24.90;45.80;;;;;;4961873;28;20063;-62
2022/10/13 09:45:13;;;;;;;8.93;6.38;;;25.00;45.80;;;;;;4957693;28;20051;-62
2022/10/13 09:47:48;;;;;;;9.70;7.25;;;25.00;45.90;;;;;;4962275;28;20042;-63
2022/10/13 09:50:18;;;;;;;11.63;6.60;;;25.00;45.90;;;;;;4958432;28;20051;-62
2022/10/13 09:52:46;;;;;;;7.53;6.13;;;25.00;45.80;;;;;;4958051;28;20050;-62
2022/10/13 09:55:33;;;;;;;8.85;6.85;;;25.00;45.90;;;;;;4957141;28;20051;-61
2022/10/13 09:58:14;;;;;;;10.05;6.93;;;25.10;45.90;;;;;;4962396;28;20051;-63
2022/10/13 10:00:42;;;;;;;9.48;6.95;;;25.10;46.00;;;;;;4960240;28;20422;-62
2022/10/13 10:03:26;;;;;;;10.38;6.93;;;25.10;45.90;;;;;;4962533;28;20514;-61
2022/10/13 10:05:56;;;;;;;8.25;6.50;;;25.10;45.80;;;;;;4965320;28;20058;-61
2022/10/13 10:08:46;;;;;;;;;;;25.10;45.80;;;;;;4962096;28;20062;-60
2022/10/13 10:11:40;;;;;;;9.40;7.00;;;25.10;45.70;;;;;;4958277;28;20399;-62
2022/10/13 10:14:25;;;;;;;14.15;7.72;;;25.20;45.60;;;;;;4963026;28;20058;-62
2022/10/13 10:17:22;;;;;;;11.30;6.53;;;25.20;45.10;;;;;;4956254;28;20054;-62
2022/10/13 10:20:09;;;;;;;12.35;6.88;;;25.20;44.10;;;;;;4966141;28;20046;-62
2022/10/13 10:23:04;;;;;;;11.18;8.00;;;25.10;44.80;;;;;;4965918;28;20486;-60
2022/10/13 10:25:58;;;;;;;14.63;6.97;;;25.10;44.90;;;;;;4960932;28;20059;-61
2022/10/13 10:28:59;;;;;;;8.05;6.65;;;25.10;45.20;;;;;;4965077;28;20047;-62
2022/10/13 10:31:48;;;;;;;10.48;7.18;;;25.10;45.30;;;;;;4965359;28;20583;-62
2022/10/13 10:34:49;;;;;;;9.45;6.38;;;25.10;45.40;;;;;;4971220;28;20042;-61
2022/10/13 10:37:38;;;;;;;9.05;5.95;;;25.20;45.50;;;;;;4966875;28;20498;-63
2022/10/13 10:40:33;;;;;;;8.43;6.25;;;25.20;45.50;;;;;;4969120;28;20049;-63
2022/10/13 10:43:25;;;;;;;9.95;7.30;;;25.20;45.30;;;;;;4966079;28;20061;-62
2022/10/13 10:45:56;;;;;;;13.15;7.15;;;25.20;44.40;;;;;;4962239;28;20062;-60
2022/10/13 10:48:31;;;;;;;10.00;6.53;;;25.20;44.90;;;;;;4959705;28;20047;-61
2022/10/13 10:51:00;;;;;;;12.80;6.53;;;25.20;45.20;;;;;;4960754;28;20481;-60
2022/10/13 10:53:44;;;;;;;10.68;6.88;;;25.10;45.20;;;;;;4962268;28;20050;-61
2022/10/13 10:56:37;;;;;;;11.45;5.93;;;25.10;45.40;;;;;;4961115;28;20063;-61
2022/10/13 10:59:35;;;;;;;9.88;7.10;;;25.20;45.50;;;;;;4969157;28;20047;-62
2022/10/13 11:02:32;;;;;;;10.98;5.95;;;25.20;45.40;;;;;;4958503;28;20134;-61
2022/10/13 11:05:01;;;;;;;15.43;6.43;;;25.20;45.50;;;;;;4957970;28;20039;-60
2022/10/13 11:07:54;;;;;;;12.65;6.60;;;25.20;45.50;;;;;;4955885;28;20061;-61
2022/10/13 11:10:22;;;;;;;11.50;6.57;;;25.30;45.50;;;;;;4943090;28;20050;-61
2022/10/13 11:13:16;;;;;;;12.02;7.10;;;25.30;45.50;;;;;;4962899;28;20557;-60
2022/10/13 11:15:45;;;;;;;7.97;5.65;;;25.30;45.50;;;;;;4955066;28;20058;-61
2022/10/13 11:18:52;;;;;;;9.35;6.18;;;25.30;45.40;;;;;;4959268;28;20058;-61
2022/10/13 11:21:19;;;;;;;9.65;5.82;;;25.40;45.40;;;;;;4955269;28;20790;-61
2022/10/13 11:23:48;;;;;;;6.30;5.63;;;25.40;45.40;;;;;;4977030;28;20055;-60
2022/10/13 11:26:30;;;;;;;10.38;6.40;;;25.40;45.30;;;;;;4965235;28;20042;-60
2022/10/13 11:28:58;;;;;;;8.32;6.40;;;25.50;45.30;;;;;;4963207;28;20413;-60
2022/10/13 11:31:31;;;;;;;8.18;5.43;;;25.50;45.20;;;;;;4962891;28;20479;-62
2022/10/13 11:34:02;;;;;;;8.30;5.75;;;25.50;45.20;;;;;;4957988;28;20051;-60
2022/10/13 11:36:54;;;;;;;8.13;5.32;;;25.60;45.30;;;;;;4955587;28;20093;-61
2022/10/13 11:39:49;;;;;;;12.00;6.45;;;25.60;45.20;;;;;;4955835;28;20691;-61
2022/10/13 11:42:34;;;;;;;6.47;5.75;;;25.60;45.10;;;;;;4961925;28;20149;-61
2022/10/13 11:45:21;;;;;;;9.88;6.57;;;25.60;45.10;;;;;;4960543;28;20065;-61
2022/10/13 11:48:27;;;;;;;9.45;5.82;;;25.60;45.10;;;;;;4964049;28;20051;-63
2022/10/13 11:51:22;;;;;;;8.20;5.63;;;25.70;45.00;;;;;;4957073;28;20049;-64
2022/10/13 11:54:11;;;;;;;10.05;5.97;;;25.70;45.00;;;;;;4949183;28;20487;-63
2022/10/13 11:56:52;;;;;;;8.57;5.83;;;25.70;44.90;;;;;;4957514;28;20491;-63
2022/10/13 11:59:31;;;;;;;7.75;5.95;;;25.70;45.00;;;;;;4957035;28;20055;-63
2022/10/13 12:02:17;;;;;;;8.35;5.70;;;25.70;45.00;;;;;;4959765;28;20054;-61
2022/10/13 12:05:04;;;;;;;9.30;6.35;;;25.70;44.90;;;;;;4961593;28;20047;-61
2022/10/13 12:07:35;;;;;;;11.57;6.38;;;25.70;44.90;;;;;;4962096;28;20038;-61
2022/10/13 12:10:06;;;;;;;6.65;6.03;;;25.70;44.80;;;;;;4965326;28;20065;-60
2022/10/13 12:12:34;;;;;;;10.13;6.10;;;25.70;44.70;;;;;;4963851;28;20073;-61
2022/10/13 12:15:01;;;;;;;9.38;7.03;;;25.70;44.70;;;;;;4967188;28;20142;-61
2022/10/13 12:17:37;;;;;;;7.88;6.15;;;25.70;44.70;;;;;;4971400;28;20133;-61
2022/10/13 12:20:22;;;;;;;7.70;6.13;;;25.70;44.60;;;;;;4965389;28;20146;-61
2022/10/13 12:22:51;;;;;;;7.35;6.07;;;25.70;44.60;;;;;;4967641;28;20051;-61
2022/10/13 12:25:21;;;;;;;10.77;6.18;;;25.70;44.60;;;;;;4960431;28;20557;-61
2022/10/13 12:27:54;;;;;;;9.95;6.10;;;25.70;45.10;;;;;;4972895;28;20066;-61
2022/10/13 12:30:25;;;;;;;6.55;5.85;;;25.70;44.50;;;;;;4970744;28;20050;-60
2022/10/13 12:32:55;;;;;;;6.75;5.53;;;25.70;44.60;;;;;;4968536;28;20059;-60
2022/10/13 12:35:28;;;;;;;8.30;6.30;;;25.70;44.60;;;;;;4970029;28;20521;-60
2022/10/13 12:37:59;;;;;;;7.35;6.30;;;25.70;44.60;;;;;;4965883;28;20077;-60
2022/10/13 12:40:27;;;;;;;9.20;6.75;;;25.70;44.60;;;;;;4963987;28;20055;-62
2022/10/13 12:42:55;;;;;;;6.32;5.22;;;25.70;44.70;;;;;;4963979;28;20039;-60
2022/10/13 12:45:30;;;;;;;7.90;5.93;;;25.80;44.70;;;;;;4970404;28;20047;-60
2022/10/13 12:47:57;;;;;;;12.18;6.55;;;25.80;44.70;;;;;;4968673;28;20058;-60
2022/10/13 12:50:35;;;;;;;9.85;6.43;;;25.80;44.70;;;;;;4965526;28;20082;-60
2022/10/13 12:53:22;;;;;;;8.32;6.30;;;25.80;44.70;;;;;;4969733;28;20491;-59
2022/10/13 12:55:57;;;;;;;11.13;6.32;;;25.80;44.70;;;;;;4960604;28;20052;-60
2022/10/13 12:58:29;;;;;;;9.68;6.32;;;25.80;44.70;;;;;;4961841;28;20039;-60
2022/10/13 13:01:17;;;;;;;7.85;6.22;;;25.90;44.70;;;;;;4964199;28;20418;-61
2022/10/13 13:03:52;;;;;;;11.30;5.95;;;25.80;44.70;;;;;;4963968;28;20102;-62
2022/10/13 13:06:24;;;;;;;8.00;5.72;;;25.90;44.70;;;;;;4960054;28;20051;-61
2022/10/13 13:09:18;;;;;;;10.68;6.65;;;25.90;44.70;;;;;;4963732;28;20050;-61
2022/10/13 13:11:46;;;;;;;8.15;6.50;;;25.90;44.60;;;;;;4963426;28;20047;-61
2022/10/13 13:14:37;;;;;;;9.90;5.85;;;25.90;44.60;;;;;;4963979;28;20058;-61
2022/10/13 13:17:24;;;;;;;8.20;5.85;;;25.90;44.60;;;;;;4963356;28;20480;-59
2022/10/13 13:20:30;;;;;;;10.38;7.00;;;25.80;44.60;;;;;;4959071;28;20059;-60
2022/10/13 13:22:58;;;;;;;13.50;7.38;;;25.80;44.70;;;;;;4961519;28;20101;-61
2022/10/13 13:25:26;;;;;;;8.32;6.55;;;25.90;44.80;;;;;;4962624;28;20050;-60
2022/10/13 13:27:53;;;;;;;9.50;6.72;;;25.90;44.80;;;;;;4959640;28;20065;-61
2022/10/13 13:30:22;;;;;;;9.02;6.13;;;25.90;44.60;;;;;;4964323;28;20051;-61
2022/10/13 13:32:49;;;;;;;9.57;6.80;;;25.90;44.60;;;;;;4964573;28;20138;-61
2022/10/13 13:35:17;;;;;;;8.15;7.03;;;25.90;44.60;;;;;;4959529;28;20038;-61
2022/10/13 13:37:50;;;;;;;10.73;6.50;;;25.90;44.60;;;;;;4963034;28;20410;-61
2022/10/13 13:40:22;;;;;;;9.55;6.85;;;25.90;44.60;;;;;;4963198;28;20046;-61
2022/10/13 13:42:49;;;;;;;;;;;25.90;44.60;;;;;;4962577;28;20066;-62
2022/10/13 13:45:20;;;;;;;9.05;7.15;;;25.90;44.60;;;;;;4960897;28;20358;-61
2022/10/13 13:47:47;;;;;;;;;;;25.90;44.60;;;;;;4964273;28;20046;-61
2022/10/13 13:50:19;;;;;;;9.43;7.60;;;25.90;44.60;;;;;;4966837;28;19925;-61
2022/10/13 13:52:46;;;;;;;8.07;7.03;;;25.90;44.60;;;;;;4960812;28;20101;-60
2022/10/13 13:55:13;;;;;;;11.85;6.88;;;25.90;44.70;;;;;;4966429;28;20446;-61
2022/10/13 13:57:41;;;;;;;8.35;7.18;;;25.90;44.70;;;;;;4956379;28;20183;-60
2022/10/13 14:00:14;;;;;;;8.73;6.75;;;25.90;44.70;;;;;;4956355;28;20050;-61
2022/10/13 14:02:42;;;;;;;10.02;7.55;;;25.90;44.70;;;;;;4962431;28;20043;-61
2022/10/13 14:05:11;;;;;;;9.55;6.38;;;26.00;44.80;;;;;;4961973;28;20074;-60
2022/10/13 14:07:39;;;;;;;7.22;6.50;;;26.00;44.80;;;;;;4959882;28;20050;-60
2022/10/13 14:10:07;;;;;;;9.23;7.10;;;26.00;45.00;;;;;;4964752;28;20059;-60
2022/10/13 14:12:35;;;;;;;10.18;6.35;;;26.00;45.10;;;;;;4963389;28;20051;-61
2022/10/13 14:15:02;;;;;;;10.80;7.03;;;26.00;45.00;;;;;;4966334;28;20050;-61
2022/10/13 14:17:29;;;;;;;11.43;7.53;;;26.10;45.70;;;;;;4966935;28;20055;-60
2022/10/13 14:19:56;;;;;;;12.57;7.32;;;26.10;45.10;;;;;;4967402;28;20066;-61
2022/10/13 14:22:23;;;;;;;9.05;7.05;;;26.10;45.00;;;;;;4968148;28;20047;-60
2022/10/13 14:24:51;;;;;;;7.88;6.65;;;26.10;45.10;;;;;;4961807;28;20098;-60